sensor_id;sensor_type;location;lat;lon;timestamp;P1;durP1;ratioP1;P2;durP2;ratioP2
65855;SDS011;52631;42.208;24.656;2023-04-06T00:02:19;13.50;;;8.00;;
65855;SDS011;52631;42.208;24.656;2023-04-06T00:04:45;9.18;;;5.55;;
65855;SDS011;52631;42.208;24.656;2023-04-06T00:07:10;11.50;;;6.30;;
65855;SDS011;52631;42.208;24.656;2023-04-06T00:09:36;12.30;;;7.40;;
65855;SDS011;52631;42.208;24.656;2023-04-06T00:12:01;11.32;;;6.63;;
65855;SDS011;52631;42.208;24.656;2023-04-06T00:14:27;9.55;;;6.57;;
65855;SDS011;52631;42.208;24.656;2023-04-06T00:16:52;9.55;;;5.63;;
65855;SDS011;52631;42.208;24.656;2023-04-06T00:19:18;9.07;;;5.75;;
65855;SDS011;52631;42.208;24.656;2023-04-06T00:21:43;9.07;;;5.45;;
65855;SDS011;52631;42.208;24.656;2023-04-06T00:24:09;12.30;;;7.03;;
65855;SDS011;52631;42.208;24.656;2023-04-06T00:26:35;9.98;;;5.53;;
65855;SDS011;52631;42.208;24.656;2023-04-06T00:29:00;8.95;;;5.75;;
65855;SDS011;52631;42.208;24.656;2023-04-06T00:31:26;12.10;;;6.50;;
65855;SDS011;52631;42.208;24.656;2023-04-06T00:33:51;11.77;;;6.43;;
65855;SDS011;52631;42.208;24.656;2023-04-06T00:36:17;10.13;;;6.32;;
65855;SDS011;52631;42.208;24.656;2023-04-06T00:38:42;11.68;;;6.82;;
65855;SDS011;52631;42.208;24.656;2023-04-06T00:41:08;8.93;;;5.90;;
65855;SDS011;52631;42.208;24.656;2023-04-06T00:43:33;9.43;;;5.20;;
65855;SDS011;52631;42.208;24.656;2023-04-06T00:45:59;10.05;;;5.57;;
65855;SDS011;52631;42.208;24.656;2023-04-06T00:48:24;9.45;;;6.53;;
65855;SDS011;52631;42.208;24.656;2023-04-06T00:50:50;11.40;;;6.90;;
65855;SDS011;52631;42.208;24.656;2023-04-06T00:53:15;9.93;;;6.15;;
65855;SDS011;52631;42.208;24.656;2023-04-06T00:55:41;11.20;;;6.95;;
65855;SDS011;52631;42.208;24.656;2023-04-06T00:58:06;11.93;;;6.22;;
65855;SDS011;52631;42.208;24.656;2023-04-06T01:00:32;13.98;;;7.80;;
65855;SDS011;52631;42.208;24.656;2023-04-06T01:02:58;11.70;;;6.70;;
65855;SDS011;52631;42.208;24.656;2023-04-06T01:05:23;14.82;;;8.85;;
65855;SDS011;52631;42.208;24.656;2023-04-06T01:07:49;13.15;;;7.80;;
65855;SDS011;52631;42.208;24.656;2023-04-06T01:10:27;11.35;;;6.82;;
65855;SDS011;52631;42.208;24.656;2023-04-06T01:12:53;13.35;;;7.47;;
65855;SDS011;52631;42.208;24.656;2023-04-06T01:15:19;14.57;;;8.73;;
65855;SDS011;52631;42.208;24.656;2023-04-06T01:17:45;10.90;;;6.07;;
65855;SDS011;52631;42.208;24.656;2023-04-06T01:20:11;13.85;;;8.48;;
65855;SDS011;52631;42.208;24.656;2023-04-06T01:22:36;11.25;;;6.25;;
65855;SDS011;52631;42.208;24.656;2023-04-06T01:25:02;12.00;;;6.70;;
65855;SDS011;52631;42.208;24.656;2023-04-06T01:27:27;12.20;;;7.45;;
65855;SDS011;52631;42.208;24.656;2023-04-06T01:29:54;15.40;;;8.32;;
65855;SDS011;52631;42.208;24.656;2023-04-06T01:32:20;13.63;;;7.30;;
65855;SDS011;52631;42.208;24.656;2023-04-06T01:34:46;13.48;;;7.63;;
65855;SDS011;52631;42.208;24.656;2023-04-06T01:37:11;11.07;;;6.60;;
65855;SDS011;52631;42.208;24.656;2023-04-06T01:39:36;12.43;;;7.45;;
65855;SDS011;52631;42.208;24.656;2023-04-06T01:42:02;13.68;;;7.80;;
65855;SDS011;52631;42.208;24.656;2023-04-06T01:44:28;11.93;;;6.75;;
65855;SDS011;52631;42.208;24.656;2023-04-06T01:46:55;13.18;;;7.35;;
65855;SDS011;52631;42.208;24.656;2023-04-06T01:49:21;13.57;;;7.72;;
65855;SDS011;52631;42.208;24.656;2023-04-06T01:51:47;11.30;;;6.97;;
65855;SDS011;52631;42.208;24.656;2023-04-06T01:54:12;14.45;;;8.30;;
65855;SDS011;52631;42.208;24.656;2023-04-06T01:56:38;12.65;;;7.68;;
65855;SDS011;52631;42.208;24.656;2023-04-06T01:59:03;14.63;;;8.13;;
65855;SDS011;52631;42.208;24.656;2023-04-06T02:01:29;13.50;;;8.48;;
65855;SDS011;52631;42.208;24.656;2023-04-06T02:03:55;15.77;;;8.70;;
65855;SDS011;52631;42.208;24.656;2023-04-06T02:06:20;13.07;;;7.80;;
65855;SDS011;52631;42.208;24.656;2023-04-06T02:08:46;15.70;;;8.95;;
65855;SDS011;52631;42.208;24.656;2023-04-06T02:11:11;12.80;;;7.57;;
65855;SDS011;52631;42.208;24.656;2023-04-06T02:13:37;15.85;;;8.82;;
65855;SDS011;52631;42.208;24.656;2023-04-06T02:16:02;15.10;;;8.27;;
65855;SDS011;52631;42.208;24.656;2023-04-06T02:18:30;15.45;;;8.27;;
65855;SDS011;52631;42.208;24.656;2023-04-06T02:20:55;12.30;;;7.65;;
65855;SDS011;52631;42.208;24.656;2023-04-06T02:23:21;13.05;;;8.05;;
65855;SDS011;52631;42.208;24.656;2023-04-06T02:25:47;16.67;;;9.13;;
65855;SDS011;52631;42.208;24.656;2023-04-06T02:28:12;14.20;;;8.40;;
65855;SDS011;52631;42.208;24.656;2023-04-06T02:30:37;14.43;;;8.90;;
65855;SDS011;52631;42.208;24.656;2023-04-06T02:33:03;15.98;;;9.25;;
65855;SDS011;52631;42.208;24.656;2023-04-06T02:35:29;16.25;;;8.95;;
65855;SDS011;52631;42.208;24.656;2023-04-06T02:37:55;14.55;;;8.32;;
65855;SDS011;52631;42.208;24.656;2023-04-06T02:40:21;15.88;;;8.95;;
65855;SDS011;52631;42.208;24.656;2023-04-06T02:42:46;13.55;;;7.68;;
65855;SDS011;52631;42.208;24.656;2023-04-06T02:45:12;15.07;;;8.18;;
65855;SDS011;52631;42.208;24.656;2023-04-06T02:47:38;16.63;;;8.80;;
65855;SDS011;52631;42.208;24.656;2023-04-06T02:50:03;18.80;;;11.15;;
65855;SDS011;52631;42.208;24.656;2023-04-06T02:52:30;16.20;;;9.93;;
65855;SDS011;52631;42.208;24.656;2023-04-06T02:54:55;17.25;;;10.32;;
65855;SDS011;52631;42.208;24.656;2023-04-06T02:57:21;16.02;;;9.88;;
65855;SDS011;52631;42.208;24.656;2023-04-06T02:59:46;17.40;;;10.32;;
65855;SDS011;52631;42.208;24.656;2023-04-06T03:02:12;16.50;;;10.20;;
65855;SDS011;52631;42.208;24.656;2023-04-06T03:04:37;16.15;;;9.38;;
65855;SDS011;52631;42.208;24.656;2023-04-06T03:07:03;16.35;;;9.63;;
65855;SDS011;52631;42.208;24.656;2023-04-06T03:09:28;19.63;;;10.43;;
65855;SDS011;52631;42.208;24.656;2023-04-06T03:11:54;15.25;;;8.30;;
65855;SDS011;52631;42.208;24.656;2023-04-06T03:14:20;13.20;;;7.78;;
65855;SDS011;52631;42.208;24.656;2023-04-06T03:16:47;16.38;;;9.50;;
65855;SDS011;52631;42.208;24.656;2023-04-06T03:19:13;15.30;;;9.40;;
65855;SDS011;52631;42.208;24.656;2023-04-06T03:21:38;14.35;;;8.57;;
65855;SDS011;52631;42.208;24.656;2023-04-06T03:24:04;12.05;;;7.05;;
65855;SDS011;52631;42.208;24.656;2023-04-06T03:26:30;14.55;;;8.35;;
65855;SDS011;52631;42.208;24.656;2023-04-06T03:28:55;16.25;;;8.55;;
65855;SDS011;52631;42.208;24.656;2023-04-06T03:31:21;13.38;;;7.97;;
65855;SDS011;52631;42.208;24.656;2023-04-06T03:33:46;16.10;;;8.75;;
65855;SDS011;52631;42.208;24.656;2023-04-06T03:36:12;14.40;;;7.78;;
65855;SDS011;52631;42.208;24.656;2023-04-06T03:38:37;13.93;;;8.30;;
65855;SDS011;52631;42.208;24.656;2023-04-06T03:41:03;15.80;;;8.80;;
65855;SDS011;52631;42.208;24.656;2023-04-06T03:43:28;14.77;;;8.80;;
65855;SDS011;52631;42.208;24.656;2023-04-06T03:45:54;15.27;;;8.93;;
65855;SDS011;52631;42.208;24.656;2023-04-06T03:48:20;15.32;;;7.85;;
65855;SDS011;52631;42.208;24.656;2023-04-06T03:50:45;16.02;;;8.10;;
65855;SDS011;52631;42.208;24.656;2023-04-06T03:53:10;14.45;;;7.40;;
65855;SDS011;52631;42.208;24.656;2023-04-06T03:55:36;13.52;;;8.10;;
65855;SDS011;52631;42.208;24.656;2023-04-06T03:58:01;14.55;;;7.00;;
65855;SDS011;52631;42.208;24.656;2023-04-06T04:00:27;17.88;;;9.38;;
65855;SDS011;52631;42.208;24.656;2023-04-06T04:02:53;17.13;;;9.73;;
65855;SDS011;52631;42.208;24.656;2023-04-06T04:05:18;16.70;;;9.05;;
65855;SDS011;52631;42.208;24.656;2023-04-06T04:07:43;18.15;;;9.90;;
65855;SDS011;52631;42.208;24.656;2023-04-06T04:10:09;15.63;;;7.75;;
65855;SDS011;52631;42.208;24.656;2023-04-06T04:12:35;14.88;;;8.40;;
65855;SDS011;52631;42.208;24.656;2023-04-06T04:15:01;15.45;;;9.25;;
65855;SDS011;52631;42.208;24.656;2023-04-06T04:17:28;13.23;;;6.82;;
65855;SDS011;52631;42.208;24.656;2023-04-06T04:19:53;10.82;;;7.13;;
65855;SDS011;52631;42.208;24.656;2023-04-06T04:22:19;15.15;;;9.02;;
65855;SDS011;52631;42.208;24.656;2023-04-06T04:24:45;14.30;;;8.68;;
65855;SDS011;52631;42.208;24.656;2023-04-06T04:27:11;15.63;;;8.57;;
65855;SDS011;52631;42.208;24.656;2023-04-06T04:29:36;12.45;;;6.95;;
65855;SDS011;52631;42.208;24.656;2023-04-06T04:32:02;14.23;;;8.15;;
65855;SDS011;52631;42.208;24.656;2023-04-06T04:34:28;15.60;;;8.70;;
65855;SDS011;52631;42.208;24.656;2023-04-06T04:36:53;11.68;;;7.30;;
65855;SDS011;52631;42.208;24.656;2023-04-06T04:39:19;13.57;;;7.32;;
65855;SDS011;52631;42.208;24.656;2023-04-06T04:41:45;12.55;;;7.07;;
65855;SDS011;52631;42.208;24.656;2023-04-06T04:44:10;9.02;;;5.35;;
65855;SDS011;52631;42.208;24.656;2023-04-06T04:46:36;12.38;;;7.20;;
65855;SDS011;52631;42.208;24.656;2023-04-06T04:49:01;13.70;;;7.10;;
65855;SDS011;52631;42.208;24.656;2023-04-06T04:51:27;13.30;;;8.23;;
65855;SDS011;52631;42.208;24.656;2023-04-06T04:53:53;12.85;;;7.22;;
65855;SDS011;52631;42.208;24.656;2023-04-06T04:56:18;10.63;;;6.10;;
65855;SDS011;52631;42.208;24.656;2023-04-06T04:58:43;11.32;;;7.15;;
65855;SDS011;52631;42.208;24.656;2023-04-06T05:01:09;14.07;;;7.28;;
65855;SDS011;52631;42.208;24.656;2023-04-06T05:03:35;12.25;;;6.47;;
65855;SDS011;52631;42.208;24.656;2023-04-06T05:06:03;11.93;;;6.72;;
65855;SDS011;52631;42.208;24.656;2023-04-06T05:08:29;10.30;;;6.68;;
65855;SDS011;52631;42.208;24.656;2023-04-06T05:10:55;11.70;;;7.55;;
65855;SDS011;52631;42.208;24.656;2023-04-06T05:13:20;11.40;;;8.13;;
65855;SDS011;52631;42.208;24.656;2023-04-06T05:15:46;8.50;;;5.88;;
65855;SDS011;52631;42.208;24.656;2023-04-06T05:18:11;12.52;;;7.28;;
65855;SDS011;52631;42.208;24.656;2023-04-06T05:20:39;10.52;;;6.82;;
65855;SDS011;52631;42.208;24.656;2023-04-06T05:23:05;11.30;;;6.60;;
65855;SDS011;52631;42.208;24.656;2023-04-06T05:25:31;9.75;;;5.97;;
65855;SDS011;52631;42.208;24.656;2023-04-06T05:27:57;11.02;;;6.82;;
65855;SDS011;52631;42.208;24.656;2023-04-06T05:30:22;8.63;;;5.70;;
65855;SDS011;52631;42.208;24.656;2023-04-06T05:32:48;11.07;;;6.68;;
65855;SDS011;52631;42.208;24.656;2023-04-06T05:35:14;9.82;;;7.20;;
65855;SDS011;52631;42.208;24.656;2023-04-06T05:37:41;10.18;;;6.43;;
65855;SDS011;52631;42.208;24.656;2023-04-06T05:40:07;10.20;;;5.15;;
65855;SDS011;52631;42.208;24.656;2023-04-06T05:42:39;13.23;;;7.32;;
65855;SDS011;52631;42.208;24.656;2023-04-06T05:45:06;8.90;;;5.63;;
65855;SDS011;52631;42.208;24.656;2023-04-06T05:47:32;11.75;;;7.22;;
65855;SDS011;52631;42.208;24.656;2023-04-06T05:49:57;11.25;;;7.03;;
65855;SDS011;52631;42.208;24.656;2023-04-06T05:52:23;11.13;;;6.43;;
65855;SDS011;52631;42.208;24.656;2023-04-06T05:54:48;10.70;;;6.30;;
65855;SDS011;52631;42.208;24.656;2023-04-06T05:57:15;11.82;;;6.43;;
65855;SDS011;52631;42.208;24.656;2023-04-06T05:59:41;8.02;;;5.38;;
65855;SDS011;52631;42.208;24.656;2023-04-06T06:02:07;9.23;;;5.65;;
65855;SDS011;52631;42.208;24.656;2023-04-06T06:04:32;8.10;;;5.35;;
65855;SDS011;52631;42.208;24.656;2023-04-06T06:06:58;9.48;;;5.97;;
65855;SDS011;52631;42.208;24.656;2023-04-06T06:09:23;12.05;;;7.40;;
65855;SDS011;52631;42.208;24.656;2023-04-06T06:11:49;10.82;;;6.65;;
65855;SDS011;52631;42.208;24.656;2023-04-06T06:14:15;8.57;;;6.25;;
65855;SDS011;52631;42.208;24.656;2023-04-06T06:16:41;10.82;;;6.03;;
65855;SDS011;52631;42.208;24.656;2023-04-06T06:19:07;9.77;;;6.57;;
65855;SDS011;52631;42.208;24.656;2023-04-06T06:21:32;8.43;;;5.78;;
65855;SDS011;52631;42.208;24.656;2023-04-06T06:23:58;9.45;;;5.35;;
65855;SDS011;52631;42.208;24.656;2023-04-06T06:26:23;9.45;;;5.65;;
65855;SDS011;52631;42.208;24.656;2023-04-06T06:28:49;8.00;;;5.05;;
65855;SDS011;52631;42.208;24.656;2023-04-06T06:31:14;11.27;;;6.50;;
65855;SDS011;52631;42.208;24.656;2023-04-06T06:33:40;7.13;;;4.55;;
65855;SDS011;52631;42.208;24.656;2023-04-06T06:36:05;9.77;;;5.80;;
65855;SDS011;52631;42.208;24.656;2023-04-06T06:38:32;9.00;;;5.30;;
65855;SDS011;52631;42.208;24.656;2023-04-06T06:40:57;8.43;;;5.45;;
65855;SDS011;52631;42.208;24.656;2023-04-06T06:43:23;7.63;;;5.25;;
65855;SDS011;52631;42.208;24.656;2023-04-06T06:45:49;11.80;;;5.07;;
65855;SDS011;52631;42.208;24.656;2023-04-06T06:48:14;7.38;;;4.82;;
65855;SDS011;52631;42.208;24.656;2023-04-06T06:50:40;7.05;;;5.20;;
65855;SDS011;52631;42.208;24.656;2023-04-06T06:53:05;6.88;;;4.90;;
65855;SDS011;52631;42.208;24.656;2023-04-06T06:55:31;9.10;;;6.47;;
65855;SDS011;52631;42.208;24.656;2023-04-06T06:57:57;11.23;;;6.60;;
65855;SDS011;52631;42.208;24.656;2023-04-06T07:00:22;7.95;;;5.05;;
65855;SDS011;52631;42.208;24.656;2023-04-06T07:02:48;7.60;;;5.32;;
65855;SDS011;52631;42.208;24.656;2023-04-06T07:05:14;8.98;;;6.15;;
65855;SDS011;52631;42.208;24.656;2023-04-06T07:07:40;8.60;;;5.95;;
65855;SDS011;52631;42.208;24.656;2023-04-06T07:10:06;10.27;;;5.43;;
65855;SDS011;52631;42.208;24.656;2023-04-06T07:12:32;8.98;;;6.32;;
65855;SDS011;52631;42.208;24.656;2023-04-06T07:14:58;9.10;;;5.95;;
65855;SDS011;52631;42.208;24.656;2023-04-06T07:17:24;10.73;;;6.60;;
65855;SDS011;52631;42.208;24.656;2023-04-06T07:19:49;9.38;;;5.90;;
65855;SDS011;52631;42.208;24.656;2023-04-06T07:22:15;8.82;;;5.50;;
65855;SDS011;52631;42.208;24.656;2023-04-06T07:24:41;8.02;;;5.53;;
65855;SDS011;52631;42.208;24.656;2023-04-06T07:27:06;9.02;;;5.47;;
65855;SDS011;52631;42.208;24.656;2023-04-06T07:29:32;8.18;;;4.95;;
65855;SDS011;52631;42.208;24.656;2023-04-06T07:31:58;6.70;;;4.47;;
65855;SDS011;52631;42.208;24.656;2023-04-06T07:34:23;13.63;;;7.80;;
65855;SDS011;52631;42.208;24.656;2023-04-06T07:36:49;7.63;;;4.85;;
65855;SDS011;52631;42.208;24.656;2023-04-06T07:39:14;9.63;;;5.32;;
65855;SDS011;52631;42.208;24.656;2023-04-06T07:41:40;9.50;;;5.78;;
65855;SDS011;52631;42.208;24.656;2023-04-06T07:44:05;8.70;;;4.38;;
65855;SDS011;52631;42.208;24.656;2023-04-06T07:46:31;8.98;;;5.40;;
65855;SDS011;52631;42.208;24.656;2023-04-06T07:48:57;8.93;;;6.05;;
65855;SDS011;52631;42.208;24.656;2023-04-06T07:51:24;12.20;;;8.05;;
65855;SDS011;52631;42.208;24.656;2023-04-06T07:53:51;11.00;;;6.28;;
65855;SDS011;52631;42.208;24.656;2023-04-06T07:56:17;8.98;;;5.47;;
65855;SDS011;52631;42.208;24.656;2023-04-06T07:58:43;6.90;;;4.25;;
65855;SDS011;52631;42.208;24.656;2023-04-06T08:01:08;6.15;;;3.50;;
65855;SDS011;52631;42.208;24.656;2023-04-06T08:03:34;9.52;;;6.18;;
65855;SDS011;52631;42.208;24.656;2023-04-06T08:06:00;7.53;;;4.65;;
65855;SDS011;52631;42.208;24.656;2023-04-06T08:08:26;6.80;;;4.22;;
65855;SDS011;52631;42.208;24.656;2023-04-06T08:10:51;5.82;;;3.55;;
65855;SDS011;52631;42.208;24.656;2023-04-06T08:13:17;9.02;;;5.15;;
65855;SDS011;52631;42.208;24.656;2023-04-06T08:15:42;8.15;;;4.70;;
65855;SDS011;52631;42.208;24.656;2023-04-06T08:18:08;6.80;;;4.75;;
65855;SDS011;52631;42.208;24.656;2023-04-06T08:20:34;11.00;;;6.88;;
65855;SDS011;52631;42.208;24.656;2023-04-06T08:23:00;7.38;;;4.10;;
65855;SDS011;52631;42.208;24.656;2023-04-06T08:25:25;5.18;;;3.60;;
65855;SDS011;52631;42.208;24.656;2023-04-06T08:27:51;6.00;;;3.70;;
65855;SDS011;52631;42.208;24.656;2023-04-06T08:30:16;6.55;;;3.60;;
65855;SDS011;52631;42.208;24.656;2023-04-06T08:32:44;7.53;;;4.60;;
65855;SDS011;52631;42.208;24.656;2023-04-06T08:35:10;6.85;;;3.92;;
65855;SDS011;52631;42.208;24.656;2023-04-06T08:37:36;6.70;;;3.70;;
65855;SDS011;52631;42.208;24.656;2023-04-06T08:40:01;6.05;;;3.65;;
65855;SDS011;52631;42.208;24.656;2023-04-06T08:42:28;6.28;;;3.40;;
65855;SDS011;52631;42.208;24.656;2023-04-06T08:44:59;9.40;;;3.93;;
65855;SDS011;52631;42.208;24.656;2023-04-06T08:47:25;6.20;;;3.75;;
65855;SDS011;52631;42.208;24.656;2023-04-06T08:49:51;7.22;;;4.75;;
65855;SDS011;52631;42.208;24.656;2023-04-06T08:52:17;5.65;;;3.88;;
65855;SDS011;52631;42.208;24.656;2023-04-06T08:54:43;6.47;;;3.72;;
65855;SDS011;52631;42.208;24.656;2023-04-06T08:57:09;6.70;;;3.85;;
65855;SDS011;52631;42.208;24.656;2023-04-06T08:59:35;6.13;;;3.42;;
65855;SDS011;52631;42.208;24.656;2023-04-06T09:02:02;4.53;;;3.03;;
65855;SDS011;52631;42.208;24.656;2023-04-06T09:04:30;4.50;;;3.10;;
65855;SDS011;52631;42.208;24.656;2023-04-06T09:06:57;6.05;;;3.40;;
65855;SDS011;52631;42.208;24.656;2023-04-06T09:09:23;5.68;;;3.78;;
65855;SDS011;52631;42.208;24.656;2023-04-06T09:11:50;6.22;;;4.15;;
65855;SDS011;52631;42.208;24.656;2023-04-06T09:14:17;5.70;;;3.42;;
65855;SDS011;52631;42.208;24.656;2023-04-06T09:16:57;5.88;;;3.80;;
65855;SDS011;52631;42.208;24.656;2023-04-06T09:19:23;6.00;;;3.53;;
65855;SDS011;52631;42.208;24.656;2023-04-06T09:21:49;6.53;;;3.85;;
65855;SDS011;52631;42.208;24.656;2023-04-06T09:24:14;6.60;;;3.80;;
65855;SDS011;52631;42.208;24.656;2023-04-06T09:26:45;5.72;;;3.90;;
65855;SDS011;52631;42.208;24.656;2023-04-06T09:29:21;7.05;;;4.20;;
65855;SDS011;52631;42.208;24.656;2023-04-06T09:31:47;8.18;;;4.70;;
65855;SDS011;52631;42.208;24.656;2023-04-06T09:34:20;6.07;;;3.92;;
65855;SDS011;52631;42.208;24.656;2023-04-06T09:36:47;8.05;;;4.20;;
65855;SDS011;52631;42.208;24.656;2023-04-06T09:39:13;7.65;;;4.80;;
65855;SDS011;52631;42.208;24.656;2023-04-06T09:41:38;9.50;;;4.70;;
65855;SDS011;52631;42.208;24.656;2023-04-06T09:44:13;5.68;;;3.55;;
65855;SDS011;52631;42.208;24.656;2023-04-06T09:46:40;6.93;;;4.43;;
65855;SDS011;52631;42.208;24.656;2023-04-06T09:49:08;7.70;;;4.00;;
65855;SDS011;52631;42.208;24.656;2023-04-06T09:51:38;4.85;;;2.83;;
65855;SDS011;52631;42.208;24.656;2023-04-06T09:54:20;8.18;;;4.22;;
65855;SDS011;52631;42.208;24.656;2023-04-06T09:56:47;7.40;;;4.57;;
65855;SDS011;52631;42.208;24.656;2023-04-06T10:02:32;6.30;;;4.07;;
65855;SDS011;52631;42.208;24.656;2023-04-06T10:05:38;7.85;;;4.40;;
65855;SDS011;52631;42.208;24.656;2023-04-06T10:08:09;6.72;;;3.78;;
65855;SDS011;52631;42.208;24.656;2023-04-06T10:10:35;6.07;;;3.83;;
65855;SDS011;52631;42.208;24.656;2023-04-06T10:13:02;6.18;;;3.90;;
65855;SDS011;52631;42.208;24.656;2023-04-06T10:15:29;6.22;;;3.35;;
65855;SDS011;52631;42.208;24.656;2023-04-06T10:17:55;4.20;;;2.78;;
65855;SDS011;52631;42.208;24.656;2023-04-06T10:25:33;7.85;;;4.45;;
65855;SDS011;52631;42.208;24.656;2023-04-06T10:28:06;4.22;;;2.72;;
65855;SDS011;52631;42.208;24.656;2023-04-06T10:30:40;5.25;;;2.80;;
65855;SDS011;52631;42.208;24.656;2023-04-06T10:33:17;5.93;;;3.17;;
65855;SDS011;52631;42.208;24.656;2023-04-06T10:35:44;5.95;;;3.65;;
65855;SDS011;52631;42.208;24.656;2023-04-06T10:38:09;6.40;;;3.60;;
65855;SDS011;52631;42.208;24.656;2023-04-06T10:40:37;10.85;;;4.10;;
65855;SDS011;52631;42.208;24.656;2023-04-06T10:43:07;5.88;;;3.55;;
65855;SDS011;52631;42.208;24.656;2023-04-06T10:45:37;6.43;;;3.78;;
65855;SDS011;52631;42.208;24.656;2023-04-06T10:48:16;6.80;;;4.03;;
65855;SDS011;52631;42.208;24.656;2023-04-06T10:50:53;5.20;;;3.58;;
65855;SDS011;52631;42.208;24.656;2023-04-06T10:55:51;5.22;;;3.33;;
65855;SDS011;52631;42.208;24.656;2023-04-06T10:58:17;6.82;;;3.95;;
65855;SDS011;52631;42.208;24.656;2023-04-06T11:00:51;6.32;;;3.90;;
65855;SDS011;52631;42.208;24.656;2023-04-06T11:03:17;7.22;;;4.00;;
65855;SDS011;52631;42.208;24.656;2023-04-06T11:05:44;6.95;;;4.63;;
65855;SDS011;52631;42.208;24.656;2023-04-06T11:08:10;7.93;;;4.75;;
65855;SDS011;52631;42.208;24.656;2023-04-06T11:10:46;5.95;;;3.92;;
65855;SDS011;52631;42.208;24.656;2023-04-06T11:13:12;6.60;;;4.00;;
65855;SDS011;52631;42.208;24.656;2023-04-06T11:15:37;5.95;;;2.97;;
65855;SDS011;52631;42.208;24.656;2023-04-06T11:18:03;4.82;;;3.42;;
65855;SDS011;52631;42.208;24.656;2023-04-06T11:20:29;4.13;;;2.38;;
65855;SDS011;52631;42.208;24.656;2023-04-06T11:22:55;5.82;;;3.88;;
65855;SDS011;52631;42.208;24.656;2023-04-06T11:25:20;5.88;;;3.38;;
65855;SDS011;52631;42.208;24.656;2023-04-06T11:27:46;5.45;;;2.95;;
65855;SDS011;52631;42.208;24.656;2023-04-06T11:30:13;5.60;;;4.10;;
65855;SDS011;52631;42.208;24.656;2023-04-06T11:32:40;5.72;;;3.50;;
65855;SDS011;52631;42.208;24.656;2023-04-06T11:35:07;5.88;;;3.63;;
65855;SDS011;52631;42.208;24.656;2023-04-06T11:37:36;5.18;;;3.15;;
65855;SDS011;52631;42.208;24.656;2023-04-06T11:40:02;5.25;;;3.10;;
65855;SDS011;52631;42.208;24.656;2023-04-06T11:42:28;4.88;;;3.35;;
65855;SDS011;52631;42.208;24.656;2023-04-06T11:44:57;5.32;;;3.30;;
65855;SDS011;52631;42.208;24.656;2023-04-06T11:47:27;5.50;;;3.40;;
65855;SDS011;52631;42.208;24.656;2023-04-06T11:49:53;5.40;;;3.50;;
65855;SDS011;52631;42.208;24.656;2023-04-06T11:52:23;6.07;;;3.70;;
65855;SDS011;52631;42.208;24.656;2023-04-06T11:54:50;6.00;;;3.70;;
65855;SDS011;52631;42.208;24.656;2023-04-06T11:57:17;5.07;;;3.60;;
65855;SDS011;52631;42.208;24.656;2023-04-06T11:59:45;6.45;;;4.00;;
65855;SDS011;52631;42.208;24.656;2023-04-06T12:02:10;6.50;;;4.10;;
65855;SDS011;52631;42.208;24.656;2023-04-06T12:04:36;6.32;;;3.80;;
65855;SDS011;52631;42.208;24.656;2023-04-06T12:07:02;6.95;;;3.95;;
65855;SDS011;52631;42.208;24.656;2023-04-06T12:09:28;5.35;;;3.53;;
65855;SDS011;52631;42.208;24.656;2023-04-06T12:11:54;4.53;;;2.63;;
65855;SDS011;52631;42.208;24.656;2023-04-06T12:14:20;6.13;;;3.70;;
65855;SDS011;52631;42.208;24.656;2023-04-06T12:16:46;8.20;;;4.38;;
65855;SDS011;52631;42.208;24.656;2023-04-06T12:19:11;6.25;;;3.70;;
65855;SDS011;52631;42.208;24.656;2023-04-06T12:21:37;6.28;;;4.15;;
65855;SDS011;52631;42.208;24.656;2023-04-06T12:24:03;5.53;;;3.45;;
65855;SDS011;52631;42.208;24.656;2023-04-06T12:26:30;6.78;;;4.07;;
65855;SDS011;52631;42.208;24.656;2023-04-06T12:29:02;5.30;;;3.53;;
65855;SDS011;52631;42.208;24.656;2023-04-06T12:31:36;6.78;;;3.67;;
65855;SDS011;52631;42.208;24.656;2023-04-06T12:34:03;7.40;;;4.00;;
65855;SDS011;52631;42.208;24.656;2023-04-06T12:36:29;6.32;;;4.05;;
65855;SDS011;52631;42.208;24.656;2023-04-06T12:38:56;6.47;;;3.65;;
65855;SDS011;52631;42.208;24.656;2023-04-06T12:41:21;6.85;;;3.95;;
65855;SDS011;52631;42.208;24.656;2023-04-06T12:43:48;5.90;;;3.88;;
65855;SDS011;52631;42.208;24.656;2023-04-06T12:46:14;5.90;;;3.50;;
65855;SDS011;52631;42.208;24.656;2023-04-06T12:48:40;7.85;;;4.47;;
65855;SDS011;52631;42.208;24.656;2023-04-06T12:51:06;6.03;;;4.38;;
65855;SDS011;52631;42.208;24.656;2023-04-06T12:53:32;6.57;;;3.70;;
65855;SDS011;52631;42.208;24.656;2023-04-06T12:55:59;5.88;;;3.97;;
65855;SDS011;52631;42.208;24.656;2023-04-06T12:58:24;6.15;;;4.30;;
65855;SDS011;52631;42.208;24.656;2023-04-06T13:00:54;8.77;;;4.15;;
65855;SDS011;52631;42.208;24.656;2023-04-06T13:03:21;5.63;;;3.63;;
65855;SDS011;52631;42.208;24.656;2023-04-06T13:05:47;5.20;;;3.38;;
65855;SDS011;52631;42.208;24.656;2023-04-06T13:08:14;7.38;;;3.78;;
65855;SDS011;52631;42.208;24.656;2023-04-06T13:10:57;5.88;;;3.70;;
65855;SDS011;52631;42.208;24.656;2023-04-06T13:13:27;6.53;;;3.92;;
65855;SDS011;52631;42.208;24.656;2023-04-06T13:15:53;5.78;;;4.00;;
65855;SDS011;52631;42.208;24.656;2023-04-06T13:18:20;6.32;;;4.10;;
65855;SDS011;52631;42.208;24.656;2023-04-06T13:20:48;5.80;;;4.13;;
65855;SDS011;52631;42.208;24.656;2023-04-06T13:23:13;6.05;;;4.15;;
65855;SDS011;52631;42.208;24.656;2023-04-06T13:25:39;7.20;;;4.70;;
65855;SDS011;52631;42.208;24.656;2023-04-06T13:28:05;6.40;;;3.97;;
65855;SDS011;52631;42.208;24.656;2023-04-06T13:30:30;5.85;;;4.10;;
65855;SDS011;52631;42.208;24.656;2023-04-06T13:32:56;5.82;;;3.80;;
65855;SDS011;52631;42.208;24.656;2023-04-06T13:35:21;4.78;;;3.60;;
65855;SDS011;52631;42.208;24.656;2023-04-06T13:37:47;6.30;;;3.67;;
65855;SDS011;52631;42.208;24.656;2023-04-06T13:40:13;7.00;;;4.10;;
65855;SDS011;52631;42.208;24.656;2023-04-06T13:42:39;6.35;;;3.60;;
65855;SDS011;52631;42.208;24.656;2023-04-06T13:45:06;5.60;;;3.97;;
65855;SDS011;52631;42.208;24.656;2023-04-06T13:47:32;5.40;;;3.42;;
65855;SDS011;52631;42.208;24.656;2023-04-06T13:49:57;5.18;;;3.63;;
65855;SDS011;52631;42.208;24.656;2023-04-06T13:52:23;6.00;;;3.83;;
65855;SDS011;52631;42.208;24.656;2023-04-06T13:54:48;4.95;;;3.42;;
65855;SDS011;52631;42.208;24.656;2023-04-06T13:57:14;5.22;;;3.35;;
65855;SDS011;52631;42.208;24.656;2023-04-06T13:59:40;5.03;;;3.45;;
65855;SDS011;52631;42.208;24.656;2023-04-06T14:02:06;5.40;;;3.00;;
65855;SDS011;52631;42.208;24.656;2023-04-06T14:04:32;5.55;;;3.65;;
65855;SDS011;52631;42.208;24.656;2023-04-06T14:07:00;7.65;;;3.75;;
65855;SDS011;52631;42.208;24.656;2023-04-06T14:09:27;8.65;;;3.75;;
65855;SDS011;52631;42.208;24.656;2023-04-06T14:11:53;5.07;;;3.30;;
65855;SDS011;52631;42.208;24.656;2023-04-06T14:14:18;5.13;;;3.22;;
65855;SDS011;52631;42.208;24.656;2023-04-06T14:16:44;5.43;;;3.38;;
65855;SDS011;52631;42.208;24.656;2023-04-06T14:19:10;4.88;;;2.75;;
65855;SDS011;52631;42.208;24.656;2023-04-06T14:21:40;5.28;;;3.60;;
65855;SDS011;52631;42.208;24.656;2023-04-06T14:24:06;4.00;;;2.78;;
65855;SDS011;52631;42.208;24.656;2023-04-06T14:26:33;5.57;;;3.05;;
65855;SDS011;52631;42.208;24.656;2023-04-06T14:28:59;5.95;;;3.38;;
65855;SDS011;52631;42.208;24.656;2023-04-06T14:31:25;5.28;;;3.67;;
65855;SDS011;52631;42.208;24.656;2023-04-06T14:33:51;7.38;;;3.90;;
65855;SDS011;52631;42.208;24.656;2023-04-06T14:36:17;4.22;;;3.17;;